Time;durP1;ratioP1;P1;durP2;ratioP2;P2;SDS_P1;SDS_P2;PMS_P1;PMS_P2;Temp;Humidity;BMP_temperature;BMP_pressure;BME280_temperature;BME280_humidity;BME280_pressure;Samples;Min_cycle;Max_cycle;Signal;HPM_P1;HPM_P2
2022/03/29 00:00:52;;;;;;;;;26.75;22.50;;;;;18.14;32.96;100852.72;5037254;28;45314;-71
2022/03/29 00:03:17;;;;;;;;;29.25;24.75;;;;;18.28;32.82;100874.31;5038523;28;45196;-72
2022/03/29 00:05:43;;;;;;;;;29.00;27.75;;;;;18.30;32.71;100869.81;5036526;28;45247;-71
2022/03/29 00:08:08;;;;;;;;;28.00;24.75;;;;;18.22;32.81;100851.78;5037554;28;45145;-71
2022/03/29 00:10:33;;;;;;;;;37.25;28.75;;;;;18.13;33.00;100831.97;5021246;28;46743;-72
2022/03/29 00:12:59;;;;;;;;;28.75;22.50;;;;;18.10;33.13;100826.59;5041327;28;45318;-71
2022/03/29 00:15:24;;;;;;;;;34.75;28.75;;;;;18.18;33.27;100843.69;5022824;28;45129;-70
2022/03/29 00:17:50;;;;;;;;;36.00;24.75;;;;;18.24;33.28;100839.16;5035856;28;45277;-70
2022/03/29 00:20:18;;;;;;;;;35.75;25.50;;;;;18.24;33.17;100840.97;5035749;28;45748;-71
2022/03/29 00:22:43;;;;;;;;;38.75;28.25;;;;;18.09;33.12;100808.59;5032326;28;45057;-72
2022/03/29 00:25:10;;;;;;;;;34.25;28.25;;;;;17.93;33.48;100796.91;5038250;28;45167;-71
2022/03/29 00:27:36;;;;;;;;;31.50;24.50;;;;;18.19;33.43;100824.75;5045802;28;45209;-72
2022/03/29 00:30:03;;;;;;;;;35.75;30.25;;;;;18.17;33.19;100829.28;5040451;28;45959;-70
2022/03/29 00:32:29;;;;;;;;;37.75;30.25;;;;;18.11;33.41;100820.28;5047338;28;45159;-70
2022/03/29 00:34:54;;;;;;;;;34.75;27.00;;;;;18.17;32.97;100817.56;5039698;28;45018;-71
2022/03/29 00:37:19;;;;;;;;;41.50;27.25;;;;;18.16;33.15;100816.63;5024638;28;45231;-70
2022/03/29 00:39:45;;;;;;;;;27.50;23.00;;;;;17.95;33.48;100779.78;5036951;28;45151;-71
2022/03/29 00:42:10;;;;;;;;;38.25;27.25;;;;;18.14;33.42;100809.47;5044404;28;45277;-71
2022/03/29 00:44:38;;;;;;;;;40.25;27.75;;;;;17.94;33.13;100777.97;5040285;28;45145;-71
2022/03/29 00:47:04;;;;;;;;;29.00;27.75;;;;;18.13;33.27;100803.16;5036067;28;45343;-71
2022/03/29 00:49:29;;;;;;;;;33.50;29.00;;;;;18.11;33.32;100795.94;5036369;28;45668;-69
2022/03/29 00:51:58;;;;;;;;;29.75;27.00;;;;;18.09;33.17;100782.44;5041661;28;45419;-72
2022/03/29 00:54:24;;;;;;;;;29.25;25.25;;;;;18.08;33.15;100788.72;5041283;28;45208;-71
2022/03/29 00:56:49;;;;;;;;;29.25;24.75;;;;;18.07;33.10;100783.38;5048590;28;44988;-71
2022/03/29 00:59:15;;;;;;;;;35.50;26.50;;;;;18.00;33.62;100779.75;5047643;28;45730;-70
2022/03/29 01:01:41;;;;;;;;;25.75;23.75;;;;;18.01;33.19;100774.34;5034897;28;44795;-71
2022/03/29 01:04:06;;;;;;;;;27.00;21.00;;;;;18.01;33.57;100768.94;5051630;28;45225;-72
2022/03/29 01:06:32;;;;;;;;;31.25;24.50;;;;;17.96;33.35;100764.47;5039109;28;45037;-72
2022/03/29 01:08:58;;;;;;;;;33.00;27.25;;;;;17.95;33.87;100771.69;5050446;28;46167;-70
2022/03/29 01:11:25;;;;;;;;;28.00;22.00;;;;;17.92;33.55;100762.66;5047417;28;45844;-71
2022/03/29 01:13:51;;;;;;;;;33.50;23.25;;;;;17.77;33.82;100747.38;5036509;28;45111;-71
2022/03/29 01:19:05;;;;;;;;;34.50;27.00;;;;;17.86;33.41;100761.75;5035754;28;45524;-71
2022/03/29 01:21:33;;;;;;;;;30.25;25.75;;;;;17.84;33.80;100751.88;5047285;28;44963;-72
2022/03/29 01:24:00;;;;;;;;;34.25;28.00;;;;;17.82;33.46;100750.97;5038940;28;45301;-72
2022/03/29 01:26:25;;;;;;;;;27.25;23.00;;;;;17.50;33.30;100696.13;5041675;28;45078;-71
2022/03/29 01:28:52;;;;;;;;;35.50;26.75;;;;;17.73;33.52;100735.66;5050407;28;45605;-72
2022/03/29 01:31:18;;;;;;;;;34.50;30.00;;;;;17.65;33.94;100718.59;5044665;28;45128;-71
2022/03/29 01:33:44;;;;;;;;;38.50;30.00;;;;;17.62;34.04;100710.47;5045523;28;45022;-72
2022/03/29 01:36:10;;;;;;;;;33.75;26.25;;;;;17.72;33.54;100730.28;5046285;28;45177;-71
2022/03/29 01:38:35;;;;;;;;;34.75;26.75;;;;;17.64;34.01;100727.63;5046675;28;45143;-71
2022/03/29 01:41:05;;;;;;;;;40.25;31.75;;;;;17.69;33.59;100728.50;5046409;28;45194;-72
2022/03/29 01:43:32;;;;;;;;;34.75;29.75;;;;;17.68;34.15;100730.28;5044948;28;45144;-71
2022/03/29 01:45:58;;;;;;;;;40.50;33.50;;;;;17.66;33.60;100725.78;5043326;28;45281;-71
2022/03/29 01:48:24;;;;;;;;;37.50;29.75;;;;;17.65;34.14;100729.38;5037987;28;46664;-72
2022/03/29 01:50:51;;;;;;;;;44.75;36.50;;;;;17.61;33.95;100725.81;5048438;28;45005;-71
2022/03/29 01:53:24;;;;;;;;;42.75;34.50;;;;;17.53;33.86;100719.53;5039452;28;45141;-71
2022/03/29 01:55:54;;;;;;;;;36.50;33.75;;;;;17.42;34.19;100699.75;5036985;28;45100;-71
2022/03/29 01:58:19;;;;;;;;;37.00;32.75;;;;;17.41;34.53;100704.25;5033892;28;45476;-70
2022/03/29 02:00:45;;;;;;;;;28.75;27.75;;;;;17.49;33.75;100707.84;5034072;28;45088;-71
2022/03/29 02:03:10;;;;;;;;;46.75;34.25;;;;;17.48;34.62;100715.94;5037917;28;45060;-71
2022/03/29 02:05:36;;;;;;;;;32.25;30.00;;;;;17.43;34.77;100705.13;5034390;28;44844;-70
2022/03/29 02:08:02;;;;;;;;;31.25;27.25;;;;;17.03;34.59;100626.06;5029528;28;46790;-72
2022/03/29 02:10:27;;;;;;;;;40.75;33.00;;;;;17.23;35.11;100674.59;5037811;28;45095;-70
2022/03/29 02:12:53;;;;;;;;;37.25;28.25;;;;;17.38;34.92;100684.47;5043352;28;45146;-71
2022/03/29 02:15:18;;;;;;;;;40.25;26.50;;;;;17.35;35.28;100681.78;5052802;28;45022;-70
2022/03/29 02:17:45;;;;;;;;;36.00;28.00;;;;;17.37;34.93;100680.84;5052316;28;46219;-71
2022/03/29 02:20:13;;;;;;;;;32.75;28.50;;;;;17.18;35.49;100638.63;5047482;28;44942;-71
2022/03/29 02:22:38;;;;;;;;;37.75;26.75;;;;;17.25;35.06;100653.88;5046697;28;45172;-70
2022/03/29 02:25:04;;;;;;;;;32.50;26.50;;;;;16.98;35.09;100608.94;5046007;28;45265;-71
2022/03/29 02:27:29;;;;;;;;;42.50;31.25;;;;;16.97;34.81;100610.75;5044073;28;45149;-69
2022/03/29 02:29:55;;;;;;;;;32.75;29.75;;;;;17.24;34.84;100658.41;5046626;28;45101;-71
2022/03/29 02:32:20;;;;;;;;;37.50;30.50;;;;;17.22;34.90;100649.38;5039282;28;45048;-71
2022/03/29 02:34:45;;;;;;;;;36.50;30.25;;;;;17.20;35.34;100648.50;5050985;28;45095;-71
2022/03/29 02:37:13;;;;;;;;;27.25;24.75;;;;;17.03;34.75;100623.34;5046850;28;45423;-71
2022/03/29 02:39:38;;;;;;;;;31.00;27.75;;;;;17.05;34.72;100627.84;5039483;28;45041;-70
2022/03/29 02:42:04;;;;;;;;;38.25;32.75;;;;;17.08;35.01;100627.81;5035204;28;45154;-72
2022/03/29 02:44:30;;;;;;;;;32.50;27.00;;;;;17.16;34.86;100638.63;5037284;28;45168;-70
2022/03/29 02:46:56;;;;;;;;;33.50;27.75;;;;;17.16;34.88;100641.31;5050768;28;45554;-72
2022/03/29 02:49:22;;;;;;;;;35.00;30.00;;;;;17.14;34.21;100626.91;5044330;28;45373;-71
2022/03/29 02:51:47;;;;;;;;;31.25;25.50;;;;;16.94;34.19;100590.09;5039534;28;45170;-72
2022/03/29 02:54:14;;;;;;;;;33.75;28.50;;;;;17.08;34.04;100617.03;5048773;28;45124;-71
2022/03/29 02:56:39;;;;;;;;;30.50;24.00;;;;;17.09;33.50;100618.84;5037859;28;45185;-71
2022/03/29 02:59:05;;;;;;;;;31.25;27.75;;;;;17.08;33.91;100616.16;5047470;28;45202;-72
2022/03/29 03:01:30;;;;;;;;;41.25;27.25;;;;;16.89;34.00;100585.59;5040130;28;45330;-70
2022/03/29 03:03:56;;;;;;;;;35.25;31.75;;;;;17.00;33.16;100613.44;5035791;28;45013;-71
2022/03/29 03:06:22;;;;;;;;;32.75;28.50;;;;;17.10;33.17;100633.22;5033704;28;45363;-70
2022/03/29 03:08:47;;;;;;;;;30.25;26.00;;;;;16.88;32.97;100594.59;5040571;28;45069;-71
2022/03/29 03:11:13;;;;;;;;;33.25;26.50;;;;;17.03;33.01;100618.84;5043853;28;45178;-72
2022/03/29 03:13:40;;;;;;;;;39.25;26.50;;;;;16.48;33.00;100517.31;5034291;28;45192;-71
2022/03/29 03:16:06;;;;;;;;;42.75;27.00;;;;;16.80;32.77;100572.09;5045300;28;45673;-71
2022/03/29 03:18:32;;;;;;;;;27.75;24.50;;;;;16.74;32.86;100576.56;5027099;28;45061;-72
2022/03/29 03:20:58;;;;;;;;;30.50;26.50;;;;;16.81;32.52;100600.84;5039233;28;45129;-72
2022/03/29 03:23:24;;;;;;;;;37.50;27.00;;;;;16.89;32.36;100613.47;5037739;28;45214;-71
2022/03/29 03:25:50;;;;;;;;;32.25;23.50;;;;;16.93;32.47;100600.88;5019766;28;47757;-70
2022/03/29 03:28:16;;;;;;;;;24.25;23.00;;;;;16.89;32.43;100596.38;5045719;28;44923;-71
2022/03/29 03:30:41;;;;;;;;;31.00;27.00;;;;;16.87;32.98;100590.09;5037846;28;45116;-71
2022/03/29 03:33:06;;;;;;;;;29.25;22.25;;;;;16.72;32.54;100582.88;5038413;28;45156;-71
2022/03/29 03:35:32;;;;;;;;;29.25;23.50;;;;;16.78;32.56;100604.47;5048162;28;47460;-71
2022/03/29 03:37:57;;;;;;;;;25.00;21.75;;;;;16.34;32.72;100519.13;5041006;28;45020;-70
2022/03/29 03:40:22;;;;;;;;;29.75;27.25;;;;;16.77;32.42;100595.47;5048665;28;45859;-73
2022/03/29 03:42:48;;;;;;;;;23.75;21.00;;;;;16.65;32.53;100567.63;5040769;28;45596;-72
2022/03/29 03:45:14;;;;;;;;;25.75;21.75;;;;;16.83;32.63;100589.16;5038918;28;45424;-72
2022/03/29 03:47:39;;;;;;;;;24.00;19.75;;;;;16.83;33.03;100588.25;5034930;28;45345;-70
2022/03/29 03:50:08;;;;;;;;;30.25;21.25;;;;;16.70;32.76;100564.00;5043376;28;45643;-71
2022/03/29 03:52:34;;;;;;;;;30.00;22.00;;;;;16.75;33.08;100575.69;5034126;28;45248;-70
2022/03/29 03:54:59;;;;;;;;;24.00;22.00;;;;;16.77;33.54;100575.69;5041942;28;44997;-70
2022/03/29 03:57:24;;;;;;;;;29.75;23.50;;;;;16.59;33.17;100530.75;5042508;28;45097;-70
2022/03/29 03:59:51;;;;;;;;;29.75;24.25;;;;;16.78;33.93;100572.09;5041359;28;45033;-71
2022/03/29 04:02:17;;;;;;;;;20.50;20.25;;;;;16.79;33.64;100562.19;5047624;28;45262;-70
2022/03/29 04:04:43;;;;;;;;;28.00;24.25;;;;;16.66;33.95;100555.91;5044726;28;46347;-71
2022/03/29 04:07:08;;;;;;;;;28.25;23.25;;;;;16.76;33.76;100555.91;5042956;28;45246;-72
2022/03/29 04:09:38;;;;;;;;;30.25;26.50;;;;;16.59;34.47;100536.16;5036339;28;45297;-71
2022/03/29 04:12:04;;;;;;;;;23.50;20.50;;;;;16.54;34.25;100548.75;5037374;28;45050;-72
2022/03/29 04:14:29;;;;;;;;;26.00;22.00;;;;;16.61;35.01;100565.81;5042771;28;45683;-72
2022/03/29 04:16:55;;;;;;;;;34.25;27.00;;;;;16.58;34.87;100553.22;5045447;28;45074;-71
2022/03/29 04:19:20;;;;;;;;;34.25;24.00;;;;;16.57;34.81;100551.44;5041075;28;44976;-70
2022/03/29 04:21:46;;;;;;;;;27.75;23.75;;;;;16.48;35.07;100528.09;5037627;28;44981;-70
2022/03/29 04:24:12;;;;;;;;;33.25;25.00;;;;;16.28;35.33;100497.53;5035980;28;45602;-71
2022/03/29 04:26:37;;;;;;;;;34.00;25.25;;;;;16.45;34.81;100533.50;5046487;28;45137;-71
2022/03/29 04:29:02;;;;;;;;;33.25;28.50;;;;;16.50;35.60;100546.94;5046574;28;45593;-71
2022/03/29 04:31:28;;;;;;;;;13.50;13.25;;;;;16.40;35.10;100552.38;5045113;28;45125;-71
2022/03/29 04:33:53;;;;;;;;;27.50;26.75;;;;;16.35;35.37;100550.53;5046957;28;45885;-71
2022/03/29 04:36:19;;;;;;;;;26.50;23.50;;;;;16.12;35.50;100515.50;5036833;28;45204;-71
2022/03/29 04:38:45;;;;;;;;;25.00;22.50;;;;;16.26;35.53;100554.16;5040589;28;45377;-72
2022/03/29 04:41:11;;;;;;;;;23.50;23.00;;;;;16.25;35.45;100536.22;5037502;28;44999;-72
2022/03/29 04:43:36;;;;;;;;;28.75;21.50;;;;;16.28;35.32;100541.56;5039295;28;45118;-71
2022/03/29 04:46:02;;;;;;;;;28.75;24.25;;;;;16.24;36.15;100545.19;5033502;28;45443;-70
2022/03/29 04:48:28;;;;;;;;;25.75;24.25;;;;;16.29;35.71;100540.69;5037277;28;44970;-70
2022/03/29 04:50:53;;;;;;;;;38.00;29.50;;;;;16.26;36.39;100532.59;5039724;28;45059;-72
2022/03/29 04:53:19;;;;;;;;;31.75;29.00;;;;;16.14;36.21;100522.72;5035249;28;45350;-71
2022/03/29 04:55:44;;;;;;;;;26.50;23.25;;;;;16.22;35.98;100525.41;5038748;28;45147;-70
2022/03/29 04:58:10;;;;;;;;;28.25;27.75;;;;;16.24;36.60;100531.69;5031718;28;44985;-72
2022/03/29 05:00:35;;;;;;;;;31.25;27.25;;;;;16.14;36.63;100517.31;5037906;28;45035;-71
2022/03/29 05:03:01;;;;;;;;;29.50;23.00;;;;;16.08;36.54;100521.81;5041023;28;45826;-72
2022/03/29 05:05:26;;;;;;;;;33.00;28.00;;;;;15.78;36.70;100467.91;5039444;28;44908;-70
2022/03/29 05:07:52;;;;;;;;;31.75;25.50;;;;;16.18;37.23;100527.19;5041167;28;45116;-71
2022/03/29 05:10:17;;;;;;;;;36.25;29.25;;;;;16.20;36.60;100521.81;5037220;28;45131;-72
2022/03/29 05:12:45;;;;;;;;;29.00;23.00;;;;;16.24;36.70;100536.19;5038100;28;45673;-71
2022/03/29 05:15:12;;;;;;;;;32.75;26.00;;;;;16.12;36.71;100526.28;5039656;28;45160;-71
2022/03/29 05:17:38;;;;;;;;;27.50;27.25;;;;;15.62;36.83;100439.13;5044535;28;45153;-71
2022/03/29 05:20:05;;;;;;;;;27.75;22.75;;;;;16.14;37.03;100546.09;5043259;28;45258;-71
2022/03/29 05:22:31;;;;;;;;;47.75;36.25;;;;;16.16;36.89;100544.28;5045780;28;46482;-73
2022/03/29 05:24:56;;;;;;;;;49.25;38.75;;;;;16.19;36.34;100549.69;5039543;28;45211;-72
2022/03/29 05:27:22;;;;;;;;;42.50;32.25;;;;;16.21;36.86;100546.06;5040949;28;45018;-71
2022/03/29 05:29:47;;;;;;;;;44.00;32.75;;;;;16.16;37.22;100542.47;5039490;28;45117;-72
2022/03/29 05:32:18;;;;;;;;;45.00;33.00;;;;;16.20;38.23;100546.06;5036270;28;45831;-70
2022/03/29 05:34:44;;;;;;;;;32.00;25.50;;;;;16.06;37.05;100505.66;5037860;28;45215;-72
2022/03/29 05:37:09;;;;;;;;;31.75;25.25;;;;;16.05;36.60;100497.56;5034140;28;45035;-70
2022/03/29 05:39:34;;;;;;;;;27.75;27.50;;;;;16.33;37.02;100534.41;5032488;28;45352;-72
2022/03/29 05:41:59;;;;;;;;;48.00;31.50;;;;;16.37;37.13;100536.19;5042982;28;45257;-71
2022/03/29 05:44:25;;;;;;;;;29.75;26.75;;;;;16.37;37.11;100532.59;5033054;28;45420;-72
2022/03/29 05:49:36;;;;;;;;;39.25;30.25;;;;;16.35;36.85;100512.81;5002417;28;45404;-71
2022/03/29 05:52:01;;;;;;;;;29.75;24.75;;;;;16.47;36.29;100528.97;5033173;28;45581;-72
2022/03/29 05:54:26;;;;;;;;;31.50;24.75;;;;;16.43;36.44;100520.91;5032254;28;45288;-71
2022/03/29 05:56:54;;;;;;;;;20.00;20.00;;;;;16.30;36.15;100496.66;5041334;28;45228;-70
2022/03/29 05:59:19;;;;;;;;;40.00;32.00;;;;;16.47;36.09;100520.00;5040877;28;45272;-71
2022/03/29 06:01:44;;;;;;;;;34.25;28.75;;;;;16.47;35.92;100520.00;5040775;28;45691;-72
2022/03/29 06:04:10;;;;;;;;;48.50;36.75;;;;;16.25;36.76;100478.69;5038558;28;45184;-71
2022/03/29 06:06:38;;;;;;;;;35.00;26.75;;;;;16.51;36.38;100519.09;5045699;28;45958;-70
2022/03/29 06:09:04;;;;;;;;;36.25;30.75;;;;;16.52;37.03;100531.69;5028139;28;46115;-71
2022/03/29 06:11:30;;;;;;;;;37.50;33.50;;;;;16.43;37.13;100507.41;5051265;28;46169;-72
2022/03/29 06:13:56;;;;;;;;;30.50;26.00;;;;;16.51;36.42;100519.97;5045512;28;45105;-72
2022/03/29 06:16:21;;;;;;;;;31.25;29.00;;;;;16.50;36.84;100526.28;5044126;28;45204;-73
2022/03/29 06:18:47;;;;;;;;;36.00;31.00;;;;;16.45;37.23;100522.69;5041882;28;44883;-72
2022/03/29 06:21:12;;;;;;;;;47.25;35.75;;;;;16.38;36.88;100524.50;5038323;28;45428;-72
2022/03/29 06:23:38;;;;;;;;;38.25;29.25;;;;;16.50;37.34;100533.44;5024029;28;45794;-70
2022/03/29 06:26:04;;;;;;;;;28.75;26.50;;;;;16.47;36.66;100536.19;5041640;28;45088;-71
2022/03/29 06:28:30;;;;;;;;;40.25;32.25;;;;;16.45;36.97;100549.66;5044215;28;45346;-72
2022/03/29 06:30:56;;;;;;;;;38.00;32.75;;;;;16.40;36.72;100541.56;5015903;28;46747;-72
2022/03/29 06:33:22;;;;;;;;;36.50;32.50;;;;;16.47;37.21;100537.06;5040325;28;44986;-72
2022/03/29 06:35:49;;;;;;;;;41.25;34.50;;;;;16.56;36.97;100544.25;5041674;28;45378;-73
2022/03/29 06:38:20;;;;;;;;;37.00;29.25;;;;;16.56;36.58;100547.88;5037763;28;45261;-72
2022/03/29 06:40:50;;;;;;;;;33.25;28.25;;;;;16.62;36.02;100549.63;5035803;28;45494;-71
2022/03/29 06:43:15;;;;;;;;;35.25;24.00;;;;;16.58;35.09;100548.75;5034550;28;45327;-72
2022/03/29 06:45:41;;;;;;;;;30.25;27.25;;;;;16.53;35.10;100533.44;5039088;28;45380;-72
2022/03/29 06:48:07;;;;;;;;;38.25;31.00;;;;;16.48;35.54;100535.25;5034724;28;45286;-71
2022/03/29 06:50:35;;;;;;;;;34.25;28.00;;;;;16.61;35.35;100547.81;5051823;28;45076;-72
2022/03/29 06:53:00;;;;;;;;;38.00;30.75;;;;;16.70;35.70;100555.03;5018456;28;45206;-71
2022/03/29 06:55:27;;;;;;;;;32.50;28.25;;;;;16.74;35.49;100551.41;5042762;28;45394;-71
2022/03/29 06:57:53;;;;;;;;;28.25;28.25;;;;;16.79;36.31;100551.41;5046025;28;45124;-72
2022/03/29 07:00:20;;;;;;;;;31.75;27.50;;;;;16.80;37.08;100543.31;5027657;28;45491;-72
2022/03/29 07:02:46;;;;;;;;;32.75;27.75;;;;;16.91;36.19;100540.59;5024396;28;45344;-71
2022/03/29 07:05:12;;;;;;;;;30.50;23.50;;;;;16.87;36.19;100534.31;5031214;28;45490;-72
2022/03/29 07:07:37;;;;;;;;;35.50;24.25;;;;;16.93;36.01;100522.63;5023496;28;45638;-73
2022/03/29 07:12:54;;;;;;;;;32.50;29.25;;;;;16.88;36.32;100494.75;5028066;28;45502;-71
2022/03/29 07:15:19;;;;;;;;;41.25;34.25;;;;;16.92;36.24;100488.44;5022836;28;45554;-71
2022/03/29 07:17:45;;;;;;;;;37.00;28.75;;;;;17.02;36.10;100502.78;5026116;28;45535;-72
2022/03/29 07:20:12;;;;;;;;;48.00;32.50;;;;;17.17;35.57;100527.00;5025750;28;45594;-72
2022/03/29 07:22:37;;;;;;;;;49.50;42.00;;;;;17.04;35.38;100501.91;5023718;28;45668;-72
2022/03/29 07:25:04;;;;;;;;;38.00;30.00;;;;;17.23;35.20;100521.59;5023963;28;45627;-72
2022/03/29 07:27:30;;;;;;;;;37.75;30.75;;;;;17.17;35.14;100512.63;5021795;28;45606;-71
2022/03/29 07:29:57;;;;;;;;;30.75;22.25;;;;;17.19;35.12;100513.50;5021781;28;46474;-71
2022/03/29 07:32:22;;;;;;;;;45.00;34.25;;;;;17.21;34.89;100512.59;5018989;28;45825;-73
2022/03/29 07:34:47;;;;;;;;;38.25;32.00;;;;;17.23;35.50;100507.19;5018841;28;45785;-73
2022/03/29 07:37:13;;;;;;;;;38.00;30.75;;;;;16.96;35.02;100452.44;5024611;28;46724;-71
2022/03/29 07:39:40;;;;;;;;;40.50;35.75;;;;;17.33;35.60;100514.34;5039723;28;45804;-70
2022/03/29 07:42:06;;;;;;;;;41.50;32.25;;;;;17.37;35.51;100521.50;5025781;28;45427;-70
2022/03/29 07:44:31;;;;;;;;;33.50;30.00;;;;;17.36;35.13;100519.72;5032109;28;45540;-71
2022/03/29 07:46:57;;;;;;;;;38.75;30.00;;;;;17.35;34.88;100508.94;5027461;28;45602;-72
2022/03/29 07:49:22;;;;;;;;;31.75;26.25;;;;;17.18;35.19;100476.63;5009578;28;47038;-72
2022/03/29 07:51:47;;;;;;;;;33.50;28.50;;;;;17.29;35.36;100507.16;5026379;28;45418;-72
2022/03/29 07:54:13;;;;;;;;;36.75;25.75;;;;;16.91;35.09;100433.56;5027842;28;45565;-71
2022/03/29 07:56:38;;;;;;;;;39.75;27.50;;;;;17.26;35.05;100493.69;5024008;28;46157;-72
2022/03/29 07:59:04;;;;;;;;;26.25;22.50;;;;;17.30;35.23;100500.84;5018539;28;45754;-72
2022/03/29 08:01:30;;;;;;;;;33.75;29.75;;;;;16.98;35.39;100469.53;5023471;28;45418;-73
2022/03/29 08:03:55;;;;;;;;;42.25;34.75;;;;;17.02;35.36;100475.81;5022312;28;45652;-71
2022/03/29 08:06:21;;;;;;;;;43.00;32.25;;;;;17.04;35.68;100469.50;5024039;28;46767;-72
2022/03/29 08:08:47;;;;;;;;;28.75;24.25;;;;;17.24;35.54;100492.78;5026740;28;46084;-71
2022/03/29 08:11:13;;;;;;;;;31.75;26.00;;;;;17.28;35.37;100492.75;5024311;28;45782;-73
2022/03/29 08:13:39;;;;;;;;;39.50;29.75;;;;;17.28;35.49;100499.97;5024351;28;45376;-72
2022/03/29 08:16:05;;;;;;;;;31.25;26.50;;;;;17.18;35.66;100488.31;5028330;28;45368;-71
2022/03/29 08:18:31;;;;;;;;;28.75;20.75;;;;;17.02;35.67;100463.19;5028150;28;46557;-73
2022/03/29 08:20:56;;;;;;;;;41.50;33.75;;;;;17.23;36.00;100494.59;5024169;28;45609;-74
2022/03/29 08:23:22;;;;;;;;;47.75;36.75;;;;;17.26;35.89;100483.78;5020699;28;45397;-73
2022/03/29 08:25:48;;;;;;;;;69.50;51.50;;;;;17.28;35.96;100478.38;5027906;28;45753;-72
2022/03/29 08:28:14;;;;;;;;;37.25;29.50;;;;;17.44;35.46;100482.78;5022362;28;45515;-71
2022/03/29 08:30:41;;;;;;;;;38.75;30.00;;;;;17.48;35.15;100473.72;5024694;28;45670;-71
2022/03/29 08:33:07;;;;;;;;;41.75;35.25;;;;;17.53;35.14;100475.53;5023310;28;45542;-72
2022/03/29 08:35:34;;;;;;;;;39.25;35.75;;;;;17.56;35.62;100468.28;5030331;28;45527;-72
2022/03/29 08:38:00;;;;;;;;;38.25;27.75;;;;;17.58;35.14;100460.19;5014718;28;46049;-71
2022/03/29 08:40:28;;;;;;;;;32.50;28.00;;;;;17.74;35.83;100471.78;5006334;28;45828;-72
2022/03/29 08:42:56;;;;;;;;;33.75;30.50;;;;;17.82;36.10;100473.50;5023672;28;45630;-72
2022/03/29 08:45:26;;;;;;;;;33.00;30.25;;;;;17.89;36.14;100463.56;5026764;28;45562;-72
2022/03/29 08:47:54;;;;;;;;;43.25;36.25;;;;;17.91;36.75;100453.66;5017269;28;47784;-71
2022/03/29 08:50:19;;;;;;;;;38.50;32.00;;;;;17.84;36.00;100420.34;5028030;28;45585;-71
2022/03/29 08:52:46;;;;;;;;;43.50;34.75;;;;;18.17;36.09;100447.13;5021261;28;45587;-73
2022/03/29 08:55:11;;;;;;;;;33.50;31.75;;;;;18.27;36.50;100440.69;5014437;28;45510;-71
2022/03/29 08:57:38;;;;;;;;;38.75;31.75;;;;;18.31;35.95;100430.75;5025685;28;45680;-72
2022/03/29 09:00:05;;;;;;;;;36.50;28.25;;;;;17.97;35.59;100336.47;5027470;28;45372;-73
2022/03/29 09:02:35;;;;;;;;;38.00;31.25;;;;;18.35;35.43;100394.66;5024978;28;45663;-71
2022/03/29 09:05:15;;;;;;;;;35.75;30.75;;;;;18.70;35.27;100433.91;5028309;28;45411;-70
2022/03/29 09:07:55;;;;;;;;;39.25;32.00;;;;;18.71;35.47;100414.97;5031100;28;45419;-71
2022/03/29 09:10:37;;;;;;;;;40.75;31.00;;;;;18.75;35.04;100424.81;5021700;28;45522;-73
2022/03/29 09:13:17;;;;;;;;;43.25;33.00;;;;;18.72;34.69;100418.53;5022395;28;45490;-72
2022/03/29 09:15:43;;;;;;;;;28.50;25.00;;;;;18.69;35.02;100407.75;5020849;28;45591;-72
2022/03/29 09:18:09;;;;;;;;;35.00;30.75;;;;;18.71;35.23;100420.38;5024716;28;45378;-72
2022/03/29 09:20:35;;;;;;;;;30.75;24.50;;;;;18.61;35.38;100413.28;5027870;28;45369;-73
2022/03/29 09:23:00;;;;;;;;;35.75;30.75;;;;;18.48;35.36;100401.72;5014265;28;45573;-72
2022/03/29 09:25:46;;;;;;;;;39.25;32.50;;;;;18.39;35.06;100388.28;5007532;28;45469;-71
2022/03/29 09:28:13;;;;;;;;;47.25;34.50;;;;;18.61;35.63;100416.00;5027997;28;47303;-71
2022/03/29 09:30:46;;;;;;;;;58.25;41.50;;;;;18.65;35.81;100415.03;5035392;28;45553;-72
2022/03/29 09:33:16;;;;;;;;;44.75;33.50;;;;;18.71;35.30;100419.44;5031588;28;45577;-72
2022/03/29 09:35:58;;;;;;;;;30.25;27.75;;;;;18.74;35.05;100414.91;5024917;28;45580;-72
2022/03/29 09:38:29;;;;;;;;;32.75;29.75;;;;;18.74;35.19;100409.50;5019919;28;46140;-72
2022/03/29 09:40:55;;;;;;;;;43.50;32.75;;;;;18.27;34.78;100326.22;5012917;28;45496;-71
2022/03/29 09:43:24;;;;;;;;;37.50;30.00;;;;;18.78;35.04;100416.66;5031325;28;45584;-71
2022/03/29 09:45:52;;;;;;;;;49.75;38.75;;;;;18.66;35.26;100392.47;5022569;28;45587;-73
2022/03/29 09:48:37;;;;;;;;;39.50;31.25;;;;;18.86;35.10;100412.97;5030400;28;45537;-72
2022/03/29 09:51:08;;;;;;;;;37.75;29.75;;;;;18.91;34.71;100412.03;5025009;28;45543;-72
2022/03/29 09:53:56;;;;;;;;;36.50;27.00;;;;;18.79;35.00;100385.97;5028902;28;45418;-71
2022/03/29 09:56:28;;;;;;;;;35.00;25.25;;;;;18.98;34.61;100407.41;5020448;28;45517;-72
2022/03/29 09:59:07;;;;;;;;;48.00;32.50;;;;;19.06;34.75;100393.78;5023701;28;46275;-71
2022/03/29 10:01:46;;;;;;;;;41.50;34.25;;;;;19.12;34.64;100385.53;5027647;28;45388;-72
2022/03/29 10:04:14;;;;;;;;;41.00;29.75;;;;;19.03;34.25;100377.56;5010897;28;45433;-73
2022/03/29 10:06:40;;;;;;;;;38.25;29.75;;;;;19.02;34.46;100365.84;5024981;28;45507;-71
2022/03/29 10:11:50;;;;;;;;;42.50;34.25;;;;;19.36;33.75;100384.28;5033941;28;45563;-73
2022/03/29 10:14:20;;;;;;;;;48.00;29.00;;;;;19.47;33.83;100379.59;5004686;28;45588;-73
2022/03/29 10:16:47;;;;;;;;;46.50;35.25;;;;;19.54;33.31;100368.66;5015604;28;45433;-72
2022/03/29 10:19:13;;;;;;;;;46.00;36.00;;;;;19.63;33.42;100371.22;5024999;28;45590;-73
2022/03/29 10:21:40;;;;;;;;;45.75;35.50;;;;;19.49;33.57;100328.09;5031059;28;45772;-73
2022/03/29 10:24:07;;;;;;;;;41.75;33.25;;;;;19.76;32.74;100364.69;5023187;28;45435;-72
2022/03/29 10:26:34;;;;;;;;;30.25;24.00;;;;;19.83;32.89;100366.38;5009983;28;45569;-73
2022/03/29 10:29:00;;;;;;;;;41.25;32.75;;;;;19.94;33.13;100355.31;5019671;28;45687;-72
2022/03/29 10:31:25;;;;;;;;;36.75;31.75;;;;;20.04;32.71;100350.63;5024317;28;45461;-72
2022/03/29 10:34:09;;;;;;;;;44.75;34.00;;;;;19.94;32.53;100321.91;5029859;28;45403;-73
2022/03/29 10:37:09;;;;;;;;;39.75;32.50;;;;;20.20;32.65;100343.09;5037308;28;45466;-72
2022/03/29 10:39:51;;;;;;;;;43.75;29.25;;;;;20.11;32.09;100344.16;5030890;28;45414;-71
2022/03/29 10:42:41;;;;;;;;;38.00;32.50;;;;;19.95;32.16;100316.47;5016154;28;45433;-70
2022/03/29 10:45:09;;;;;;;;;45.75;30.75;;;;;20.24;32.13;100343.00;5014900;28;45922;-71
2022/03/29 10:47:35;;;;;;;;;36.75;34.00;;;;;20.03;32.05;100292.78;5014956;28;45595;-68
2022/03/29 10:50:04;;;;;;;;;48.25;35.75;;;;;20.47;31.79;100338.91;5015036;28;47102;-71
2022/03/29 10:52:37;;;;;;;;;42.50;34.00;;;;;20.61;31.60;100336.81;5022972;28;45484;-71
2022/03/29 10:55:31;;;;;;;;;44.50;35.25;;;;;20.70;31.17;100333.03;5022708;28;46724;-71
2022/03/29 10:58:07;;;;;;;;;41.00;33.50;;;;;20.70;31.20;100330.31;5003259;28;45567;-69
2022/03/29 11:00:35;;;;;;;;;43.75;35.25;;;;;20.64;31.33;100325.03;5016952;28;45477;-70
2022/03/29 11:03:14;;;;;;;;;33.25;30.50;;;;;20.46;30.83;100277.44;5024887;28;45512;-69
2022/03/29 11:06:08;;;;;;;;;37.25;31.75;;;;;20.87;30.85;100321.81;5029501;28;45641;-71
2022/03/29 11:08:39;;;;;;;;;38.50;30.25;;;;;20.99;30.43;100318.78;5022031;28;45512;-70
2022/03/29 11:11:06;;;;;;;;;39.50;29.75;;;;;21.10;30.22;100318.53;5019954;28;47052;-71
2022/03/29 11:13:34;;;;;;;;;38.25;28.25;;;;;20.89;30.07;100279.22;5037529;28;45230;-70
2022/03/29 11:16:20;;;;;;;;;39.25;33.25;;;;;21.15;30.26;100312.97;5048167;28;44949;-69
2022/03/29 11:18:46;;;;;;;;;42.50;30.75;;;;;21.04;30.23;100305.09;5024768;28;45481;-71
2022/03/29 11:21:28;;;;;;;;;37.25;28.75;;;;;21.03;30.13;100302.41;5016496;28;45866;-71